Time;durP1;ratioP1;P1;durP2;ratioP2;P2;SDS_P1;SDS_P2;PMS_P1;PMS_P2;Temp;Humidity;BMP_temperature;BMP_pressure;BME280_temperature;BME280_humidity;BME280_pressure;Samples;Min_cycle;Max_cycle;Signal;HPM_P1;HPM_P2
2022/03/31 00:00:17;;;;;;;51.00;27.93;;;;;;;7.12;100.00;96848.34;4988646;28;20209;-56
2022/03/31 00:02:44;;;;;;;56.17;28.73;;;;;;;7.13;100.00;96842.16;4991245;28;20564;-56
2022/03/31 00:05:11;;;;;;;60.53;31.90;;;;;;;7.18;100.00;96838.09;4990817;28;20288;-56
2022/03/31 00:07:48;;;;;;;58.63;31.43;;;;;;;7.23;100.00;96834.97;4991249;28;20235;-56
2022/03/31 00:10:15;;;;;;;57.50;31.57;;;;;;;7.25;100.00;96840.78;4991040;28;20595;-56
2022/03/31 00:12:42;;;;;;;63.17;32.93;;;;;;;7.28;100.00;96830.06;4991361;28;20613;-56
2022/03/31 00:15:09;;;;;;;60.40;32.73;;;;;;;7.29;100.00;96831.69;4990793;28;20237;-56
2022/03/31 00:17:37;;;;;;;61.80;32.13;;;;;;;7.30;100.00;96827.31;4991306;28;20216;-56
2022/03/31 00:20:05;;;;;;;57.80;30.17;;;;;;;7.32;100.00;96828.72;4991344;28;20209;-56
2022/03/31 00:22:32;;;;;;;57.50;32.23;;;;;;;7.32;100.00;96823.53;4991347;28;20652;-56
2022/03/31 00:24:58;;;;;;;62.87;32.70;;;;;;;7.35;100.00;96825.78;4990792;28;20197;-56
2022/03/31 00:27:25;;;;;;;55.27;31.00;;;;;;;7.34;100.00;96813.78;4990917;28;20196;-56
2022/03/31 00:29:52;;;;;;;50.13;26.80;;;;;;;7.37;100.00;96812.66;4992411;28;20200;-56
2022/03/31 00:32:19;;;;;;;47.47;24.80;;;;;;;7.35;100.00;96812.81;4995342;28;20199;-56
2022/03/31 00:34:47;;;;;;;49.97;31.35;;;;;;;7.33;100.00;96804.41;4993576;28;20425;-56
2022/03/31 00:37:14;;;;;;;57.87;30.43;;;;;;;7.29;100.00;96804.94;4994984;28;20187;-56
2022/03/31 00:39:42;;;;;;;58.73;30.83;;;;;;;7.26;100.00;96802.69;4994707;28;20185;-56
2022/03/31 00:42:10;;;;;;;62.90;32.60;;;;;;;7.24;100.00;96805.44;4994712;28;20214;-56
2022/03/31 00:44:37;;;;;;;59.03;31.53;;;;;;;7.20;100.00;96799.81;4994740;28;20268;-55
2022/03/31 00:47:04;;;;;;;58.13;29.97;;;;;;;7.20;100.00;96793.78;4994851;28;20263;-56
2022/03/31 00:49:33;;;;;;;53.67;28.97;;;;;;;7.20;100.00;96789.44;4994814;28;20200;-56
2022/03/31 00:52:02;;;;;;;50.47;28.70;;;;;;;7.15;100.00;96786.53;4994533;28;20242;-56
2022/03/31 00:54:30;;;;;;;58.87;29.87;;;;;;;7.12;100.00;96783.47;4994163;28;20271;-56
2022/03/31 00:56:58;;;;;;;60.80;29.67;;;;;;;7.14;100.00;96782.34;4994378;28;20238;-56
2022/03/31 00:59:26;;;;;;;55.53;29.50;;;;;;;7.15;100.00;96781.34;4994781;28;20187;-56
2022/03/31 01:01:54;;;;;;;61.50;30.07;;;;;;;7.16;100.00;96782.16;4992925;28;20802;-56
2022/03/31 01:04:21;;;;;;;55.43;28.23;;;;;;;7.17;100.00;96782.00;4994029;28;20195;-56
2022/03/31 01:06:47;;;;;;;55.87;27.73;;;;;;;7.21;100.00;96782.44;4994343;28;20211;-56
2022/03/31 01:09:16;;;;;;;54.07;28.13;;;;;;;7.24;100.00;96776.91;4994143;28;20265;-56
2022/03/31 01:11:45;;;;;;;46.70;24.93;;;;;;;7.26;100.00;96779.34;4994241;28;20199;-56
2022/03/31 01:14:12;;;;;;;45.23;23.90;;;;;;;7.30;100.00;96770.22;4993019;28;20606;-56
2022/03/31 01:16:39;;;;;;;44.83;23.83;;;;;;;7.30;100.00;96772.81;4994309;28;20775;-56
2022/03/31 01:19:07;;;;;;;42.03;22.83;;;;;;;7.30;100.00;96765.81;4994340;28;20241;-56
2022/03/31 01:21:36;;;;;;;45.30;24.07;;;;;;;7.29;100.00;96761.59;4993920;28;20282;-56
2022/03/31 01:24:06;;;;;;;46.77;24.07;;;;;;;7.33;100.00;96767.25;4993709;28;20262;-56
2022/03/31 01:26:34;;;;;;;43.33;23.73;;;;;;;7.34;100.00;96761.09;4993958;28;20220;-56
2022/03/31 01:29:01;;;;;;;46.87;24.37;;;;;;;7.30;100.00;96757.22;4992938;28;20299;-56
2022/03/31 01:31:28;;;;;;;41.57;22.83;;;;;;;7.32;100.00;96753.47;4993755;28;20188;-56
2022/03/31 01:33:55;;;;;;;46.07;24.27;;;;;;;7.32;100.00;96747.47;4993845;28;20210;-56
2022/03/31 01:36:22;;;;;;;44.57;24.03;;;;;;;7.36;100.00;96748.75;4993763;28;20746;-56
2022/03/31 01:38:49;;;;;;;42.73;24.73;;;;;;;7.38;100.00;96754.56;4994020;28;20190;-56
2022/03/31 01:41:17;;;;;;;46.10;23.90;;;;;;;7.39;100.00;96746.59;4992638;28;20589;-56
2022/03/31 01:43:44;;;;;;;49.97;23.80;;;;;;;7.41;100.00;96745.59;4993819;28;20262;-56
2022/03/31 01:46:12;;;;;;;45.13;24.63;;;;;;;7.43;100.00;96748.84;4993310;28;20207;-56
2022/03/31 01:48:39;;;;;;;54.67;26.13;;;;;;;7.43;100.00;96739.25;4993782;28;20181;-56
2022/03/31 01:51:07;;;;;;;60.47;29.87;;;;;;;7.44;100.00;96740.84;4993361;28;20222;-56
2022/03/31 01:53:37;;;;;;;54.20;27.70;;;;;;;7.46;100.00;96744.06;4993751;28;20195;-56
2022/03/31 01:56:04;;;;;;;57.03;28.87;;;;;;;7.44;100.00;96738.25;4991884;28;20220;-56
2022/03/31 01:58:32;;;;;;;58.43;27.87;;;;;;;7.45;100.00;96734.69;4993577;28;20679;-56
2022/03/31 02:00:59;;;;;;;49.07;26.20;;;;;;;7.46;100.00;96731.09;4993127;28;20224;-56
2022/03/31 02:03:26;;;;;;;59.27;28.53;;;;;;;7.50;100.00;96727.16;4993402;28;20211;-56
2022/03/31 02:05:53;;;;;;;55.53;28.53;;;;;;;7.51;100.00;96730.59;4992894;28;20707;-56
2022/03/31 02:08:20;;;;;;;57.47;28.93;;;;;;;7.43;100.00;96722.88;4993607;28;20185;-56
2022/03/31 02:10:47;;;;;;;57.90;28.37;;;;;;;7.41;100.00;96715.28;4993052;28;20555;-56
2022/03/31 02:13:15;;;;;;;58.63;27.70;;;;;;;7.41;100.00;96717.88;4993282;28;20239;-56
2022/03/31 02:15:43;;;;;;;53.23;27.70;;;;;;;7.43;100.00;96708.09;4992944;28;20219;-56
2022/03/31 02:18:10;;;;;;;51.20;27.07;;;;;;;7.43;100.00;96708.09;4993002;28;20207;-56
2022/03/31 02:20:39;;;;;;;60.60;29.10;;;;;;;7.44;100.00;96709.69;4992855;28;20541;-56
2022/03/31 02:23:06;;;;;;;64.37;32.37;;;;;;;7.48;100.00;96699.78;4993275;28;20544;-56
2022/03/31 02:25:34;;;;;;;69.10;33.27;;;;;;;7.48;100.00;96703.16;4992365;28;20230;-56
2022/03/31 02:28:01;;;;;;;75.00;35.83;;;;;;;7.48;100.00;96699.78;4992950;28;20703;-56
2022/03/31 02:30:29;;;;;;;75.30;35.93;;;;;;;7.51;100.00;96704.63;4993482;28;20313;-56
2022/03/31 02:32:59;;;;;;;76.93;36.93;;;;;;;7.51;100.00;96695.03;5009764;28;20185;-56
2022/03/31 02:35:26;;;;;;;75.60;37.37;;;;;;;7.51;100.00;96700.22;5003323;28;20211;-56
2022/03/31 02:37:53;;;;;;;76.73;37.60;;;;;;;7.52;100.00;96686.25;4999401;28;20197;-56
2022/03/31 02:40:20;;;;;;;74.77;37.33;;;;;;;7.52;100.00;96685.47;4996734;28;20185;-56
2022/03/31 02:42:47;;;;;;;74.90;37.13;;;;;;;7.54;100.00;96686.88;4991669;28;20213;-56
2022/03/31 02:45:15;;;;;;;74.57;37.10;;;;;;;7.54;100.00;96683.50;4991048;28;20750;-56
2022/03/31 02:47:44;;;;;;;73.93;36.80;;;;;;;7.54;100.00;96681.69;5008162;28;20218;-56
2022/03/31 02:50:13;;;;;;;75.87;36.60;;;;;;;7.54;100.00;96679.09;5005406;28;20208;-56
2022/03/31 02:55:28;;;;;;;75.37;36.90;;;;;;;7.52;100.00;96670.69;5010628;28;20708;-56
2022/03/31 02:57:56;;;;;;;73.07;36.80;;;;;;;7.54;100.00;96675.69;5009792;28;20613;-56
2022/03/31 03:00:24;;;;;;;72.70;35.77;;;;;;;7.54;100.00;96660.13;5010803;28;20192;-56
2022/03/31 03:02:51;;;;;;;75.23;36.00;;;;;;;7.55;100.00;96666.94;5011174;28;20281;-56
2022/03/31 03:05:19;;;;;;;72.07;37.23;;;;;;;7.55;100.00;96674.72;5010605;28;20215;-56
2022/03/31 03:07:46;;;;;;;77.97;38.30;;;;;;;7.56;100.00;96668.53;5010875;28;20242;-56
2022/03/31 03:10:13;;;;;;;82.07;39.27;;;;;;;7.56;100.00;96670.31;5008632;28;20537;-56
2022/03/31 03:12:41;;;;;;;77.37;37.60;;;;;;;7.56;100.00;96662.53;5010702;28;20662;-56
2022/03/31 03:15:08;;;;;;;75.47;36.97;;;;;;;7.53;100.00;96655.91;5010217;28;20714;-56
2022/03/31 03:17:35;;;;;;;71.60;36.77;;;;;;;7.52;100.00;96659.50;5010834;28;20194;-56
2022/03/31 03:20:03;;;;;;;73.00;35.90;;;;;;;7.53;100.00;96653.31;5010539;28;20188;-56
2022/03/31 03:22:32;;;;;;;73.27;36.67;;;;;;;7.53;100.00;96653.31;5009707;28;20208;-56
2022/03/31 03:24:59;;;;;;;81.60;39.50;;;;;;;7.53;100.00;96653.31;5005637;28;20328;-56
2022/03/31 03:27:26;;;;;;;84.80;40.70;;;;;;;7.58;100.00;96655.38;5009989;28;20302;-56
2022/03/31 03:29:53;;;;;;;85.57;41.63;;;;;;;7.52;100.00;96649.13;5010167;28;20643;-56
2022/03/31 03:32:22;;;;;;;83.13;40.83;;;;;;;7.50;100.00;96651.09;5010647;28;20266;-56
2022/03/31 03:34:48;;;;;;;92.72;50.40;;;;;;;7.52;100.00;96654.31;5008924;28;20485;-56
2022/03/31 03:37:15;;;;;;;85.27;43.23;;;;;;;7.49;100.00;96652.06;5010487;28;20652;-56
2022/03/31 03:39:45;;;;;;;82.37;41.03;;;;;;;7.53;100.00;96650.72;5010429;28;20195;-56
2022/03/31 03:42:12;;;;;;;88.37;42.83;;;;;;;7.53;100.00;96648.13;5010591;28;20249;-56
2022/03/31 03:44:39;;;;;;;86.10;42.00;;;;;;;7.52;100.00;96649.13;5010172;28;20187;-56
2022/03/31 03:47:06;;;;;;;88.43;41.37;;;;;;;7.49;100.00;96642.47;5010555;28;20213;-56
2022/03/31 03:49:33;;;;;;;84.00;41.13;;;;;;;7.44;100.00;96652.59;5010348;28;20187;-56
2022/03/31 03:52:00;;;;;;;90.27;43.70;;;;;;;7.44;100.00;96641.41;5010341;28;20587;-56
2022/03/31 03:54:28;;;;;;;86.57;43.70;;;;;;;7.46;100.00;96645.44;5010113;28;20203;-56
2022/03/31 03:56:56;;;;;;;91.90;43.43;;;;;;;7.44;100.00;96646.59;5010248;28;20705;-56
2022/03/31 03:59:24;;;;;;;87.33;43.23;;;;;;;7.44;100.00;96647.41;5010428;28;20191;-56
2022/03/31 04:01:51;;;;;;;89.87;42.23;;;;;;;7.45;100.00;96651.59;5010038;28;20204;-56
2022/03/31 04:04:18;;;;;;;83.53;41.10;;;;;;;7.44;100.00;96644.81;5011599;28;20188;-56
2022/03/31 04:06:44;;;;;;;93.73;43.60;;;;;;;7.47;100.00;96641.06;5016783;28;20219;-56
2022/03/31 04:09:11;;;;;;;85.23;41.27;;;;;;;7.48;100.00;96640.88;5016827;28;20190;-56
2022/03/31 04:11:39;;;;;;;91.73;42.50;;;;;;;7.49;100.00;96641.69;5016601;28;20209;-56
2022/03/31 04:14:07;;;;;;;86.20;40.70;;;;;;;7.49;100.00;96642.47;5016362;28;20186;-56
2022/03/31 04:16:34;;;;;;;87.27;44.57;;;;;;;7.48;100.00;96643.47;5016605;28;20214;-56
2022/03/31 04:19:01;;;;;;;88.53;44.23;;;;;;;7.47;100.00;96631.47;5016733;28;20646;-56
2022/03/31 04:21:28;;;;;;;73.70;36.77;;;;;;;7.49;100.00;96641.69;5016437;28;20209;-56
2022/03/31 04:23:55;;;;;;;65.57;33.87;;;;;;;7.45;100.00;96643.81;5016672;28;20249;-56
2022/03/31 04:26:22;;;;;;;72.73;35.60;;;;;;;7.36;100.00;96637.13;5016323;28;20226;-56
2022/03/31 04:28:48;;;;;;;61.30;31.00;;;;;;;7.37;100.00;96638.75;5016777;28;20199;-56
2022/03/31 04:31:16;;;;;;;58.03;30.47;;;;;;;7.31;100.00;96639.47;5014292;28;20203;-56
2022/03/31 04:33:43;;;;;;;65.43;36.05;;;;;;;7.32;100.00;96636.69;5015729;28;20500;-56
2022/03/31 04:36:10;;;;;;;60.50;31.70;;;;;;;7.29;100.00;96639.63;5016334;28;20741;-56
2022/03/31 04:38:37;;;;;;;57.77;30.07;;;;;;;7.27;100.00;96631.22;5016673;28;20590;-55
2022/03/31 04:41:04;;;;;;;59.95;31.45;;;;;;;7.28;100.00;96632.03;5016280;28;20199;-56
2022/03/31 04:43:31;;;;;;;58.73;30.03;;;;;;;7.21;100.00;96634.53;5016624;28;20283;-56
2022/03/31 04:45:58;;;;;;;57.20;29.10;;;;;;;7.22;100.00;96638.72;5016012;28;20214;-56
2022/03/31 04:48:26;;;;;;;58.13;30.73;;;;;;;7.17;100.00;96641.88;5016634;28;20240;-56
2022/03/31 04:50:54;;;;;;;54.53;29.00;;;;;;;7.12;100.00;96640.78;5016267;28;20191;-56
2022/03/31 04:53:20;;;;;;;52.33;27.90;;;;;;;7.06;100.00;96643.09;5016634;28;20198;-56
2022/03/31 04:55:47;;;;;;;51.60;27.93;;;;;;;7.01;100.00;96647.22;5016147;28;20211;-56
2022/03/31 04:58:14;;;;;;;51.93;27.10;;;;;;;7.00;100.00;96643.81;5016548;28;20204;-56
2022/03/31 05:00:41;;;;;;;80.20;42.00;;;;;;;7.01;100.00;96644.63;5016126;28;20207;-56
2022/03/31 05:03:08;;;;;;;72.87;36.07;;;;;;;6.96;100.00;96636.56;5016749;28;20283;-56
2022/03/31 05:05:36;;;;;;;47.30;28.87;;;;;;;6.94;100.00;96631.53;5016188;28;20212;-56
2022/03/31 05:08:03;;;;;;;44.77;25.10;;;;;;;6.96;100.00;96639.16;5016470;28;20186;-56
2022/03/31 05:10:30;;;;;;;47.87;25.93;;;;;;;6.97;100.00;96633.00;5016225;28;20187;-55
2022/03/31 05:12:57;;;;;;;41.90;22.87;;;;;;;6.97;100.00;96636.38;5016408;28;20183;-56
2022/03/31 05:15:24;;;;;;;40.70;25.93;;;;;;;6.91;100.00;96626.72;5015173;28;20215;-56
2022/03/31 05:17:50;;;;;;;36.90;22.17;;;;;;;6.91;100.00;96627.53;5012562;28;20186;-56
2022/03/31 05:20:18;;;;;;;31.73;18.77;;;;;;;6.87;100.00;96620.28;5013263;28;20249;-56
2022/03/31 05:22:46;;;;;;;37.70;22.37;;;;;;;6.92;100.00;96621.34;5013293;28;20634;-56
2022/03/31 05:25:13;;;;;;;37.83;20.60;;;;;;;6.95;100.00;96617.59;5012654;28;20700;-56
2022/03/31 05:27:43;;;;;;;36.53;21.13;;;;;;;7.00;100.00;96620.47;5013023;28;20199;-56
2022/03/31 05:30:11;;;;;;;36.40;20.93;;;;;;;7.01;100.00;96623.88;5012843;28;20241;-56
2022/03/31 05:32:38;;;;;;;36.97;21.57;;;;;;;7.00;100.00;96620.47;5013125;28;20199;-56
2022/03/31 05:35:07;;;;;;;33.30;19.60;;;;;;;6.98;100.00;96621.63;5012592;28;20187;-56
2022/03/31 05:37:34;;;;;;;31.90;18.13;;;;;;;7.01;100.00;96618.69;5013032;28;20188;-56
2022/03/31 05:40:04;;;;;;;30.43;18.13;;;;;;;7.02;100.00;96613.31;5013059;28;20226;-56
2022/03/31 05:42:31;;;;;;;32.90;18.87;;;;;;;7.03;100.00;96614.13;5011539;28;20226;-56
2022/03/31 05:45:01;;;;;;;32.07;18.90;;;;;;;7.04;100.00;96611.34;5012342;28;20192;-56
2022/03/31 05:47:28;;;;;;;30.90;18.63;;;;;;;7.03;100.00;96606.34;5012686;28;20188;-56
2022/03/31 05:49:55;;;;;;;34.67;19.40;;;;;;;7.03;100.00;96611.53;5012563;28;20246;-56
2022/03/31 05:52:22;;;;;;;32.03;18.20;;;;;;;7.07;100.00;96603.19;5012910;28;20184;-56
2022/03/31 05:54:49;;;;;;;29.13;18.37;;;;;;;7.06;100.00;96606.78;5025739;23;20233;-56
2022/03/31 05:57:18;;;;;;;31.77;17.50;;;;;;;7.09;100.00;96598.63;5009387;28;20254;-56
2022/03/31 05:59:45;;;;;;;31.30;16.97;;;;;;;7.11;100.00;96610.63;5011794;28;20543;-56
2022/03/31 06:02:12;;;;;;;31.98;20.95;;;;;;;7.07;100.00;96605.78;5011670;28;20466;-57
2022/03/31 06:04:38;;;;;;;28.73;17.80;;;;;;;7.02;100.00;96597.75;5010730;28;20297;-56
2022/03/31 06:07:06;;;;;;;26.23;15.73;;;;;;;7.09;100.00;96606.44;5012405;28;20188;-56
2022/03/31 06:09:33;;;;;;;24.30;16.33;;;;;;;7.18;100.00;96612.34;5012255;28;20183;-57
2022/03/31 06:11:59;;;;;;;27.57;16.13;;;;;;;7.16;100.00;96608.31;5012151;28;20181;-56
2022/03/31 06:14:28;;;;;;;26.13;16.57;;;;;;;7.17;100.00;96609.91;5011788;28;20215;-57
2022/03/31 06:16:54;;;;;;;30.17;17.77;;;;;;;7.20;100.00;96612.16;5012447;28;20192;-57
2022/03/31 06:19:21;;;;;;;30.20;17.37;;;;;;;7.23;100.00;96607.44;5012110;28;20207;-57
2022/03/31 06:21:48;;;;;;;28.73;17.10;;;;;;;7.21;100.00;96609.41;5011918;28;20198;-57
2022/03/31 06:24:15;;;;;;;25.93;15.83;;;;;;;7.23;100.00;96609.19;5011619;28;20774;-57
2022/03/31 06:26:42;;;;;;;26.73;15.00;;;;;;;7.26;100.00;96610.66;5011900;28;20191;-57
2022/03/31 06:29:08;;;;;;;32.40;19.43;;;;;;;7.24;100.00;96616.00;5011904;28;20191;-57
2022/03/31 06:31:38;;;;;;;35.83;21.00;;;;;;;7.19;100.00;96605.34;5011629;28;20185;-57
2022/03/31 06:34:05;;;;;;;31.80;19.47;;;;;;;7.19;100.00;96607.94;5011477;28;20207;-57
2022/03/31 06:36:31;;;;;;;31.23;19.03;;;;;;;7.10;100.00;96607.25;5011859;28;20758;-57
2022/03/31 06:38:59;;;;;;;29.50;18.57;;;;;;;7.16;100.00;96605.72;5011924;28;20245;-57
2022/03/31 06:41:25;;;;;;;31.87;18.50;;;;;;;7.17;100.00;96599.53;5011554;28;20691;-57
2022/03/31 06:43:52;;;;;;;47.27;20.40;;;;;;;7.11;100.00;96605.44;5011545;28;20218;-57
2022/03/31 06:46:19;;;;;;;65.50;19.00;;;;;;;6.90;100.00;96607.75;5011531;28;20192;-57
2022/03/31 06:48:48;;;;;;;28.53;18.77;;;;;;;6.84;100.00;96607.69;5011435;28;20245;-57
2022/03/31 06:51:17;;;;;;;22.53;15.93;;;;;;;6.78;100.00;96604.81;5011297;28;20195;-57
2022/03/31 06:53:44;;;;;;;23.17;15.40;;;;;;;6.81;100.00;96611.41;5011364;28;20271;-57
2022/03/31 06:56:16;;;;;;;19.77;13.50;;;;;;;6.84;100.00;96607.69;5011125;28;20248;-56
2022/03/31 06:58:42;;;;;;;22.23;15.10;;;;;;;6.90;100.00;96605.16;5011671;28;20200;-57
2022/03/31 07:01:09;;;;;;;21.53;14.17;;;;;;;6.91;100.00;96604.19;5011189;28;20239;-57
2022/03/31 07:03:37;;;;;;;24.47;14.87;;;;;;;6.96;100.00;96608.81;5011219;28;20236;-57
2022/03/31 07:06:06;;;;;;;21.30;14.13;;;;;;;6.99;100.00;96599.91;5011035;28;20183;-57
2022/03/31 07:08:34;;;;;;;23.47;15.33;;;;;;;7.09;100.00;96605.63;5011284;28;20192;-57
2022/03/31 07:11:02;;;;;;;24.33;14.63;;;;;;;7.12;100.00;96610.47;5011090;28;20191;-56
2022/03/31 07:13:29;;;;;;;30.70;19.60;;;;;;;7.01;100.00;96606.50;5011225;28;20262;-56
2022/03/31 07:15:56;;;;;;;29.07;16.40;;;;;;;7.01;100.00;96616.09;5009450;28;20569;-57
2022/03/31 07:18:23;;;;;;;68.23;19.60;;;;;;;6.91;100.00;96611.97;5011163;28;20195;-57
2022/03/31 07:20:50;;;;;;;34.97;20.17;;;;;;;6.87;100.00;96613.31;5010768;28;20179;-57
2022/03/31 07:23:23;;;;;;;52.03;28.43;;;;;;;6.88;100.00;96621.91;5009730;28;20230;-57
2022/03/31 07:25:50;;;;;;;135.23;25.57;;;;;;;6.90;100.00;96615.53;5010524;28;20222;-57
2022/03/31 07:28:18;;;;;;;65.43;22.20;;;;;;;6.83;100.00;96617.22;5010953;28;20604;-57
2022/03/31 07:30:44;;;;;;;53.07;25.23;;;;;;;6.90;100.00;96606.94;5010754;28;20187;-57
2022/03/31 07:33:11;;;;;;;129.43;22.87;;;;;;;7.00;100.00;96611.88;5011027;28;20195;-57
2022/03/31 07:35:39;;;;;;;34.03;19.57;;;;;;;6.97;100.00;96609.66;5010372;28;20645;-57
2022/03/31 07:38:07;;;;;;;65.93;18.43;;;;;;;7.07;100.00;96602.41;5009508;28;20558;-57
2022/03/31 07:40:37;;;;;;;40.13;17.10;;;;;;;7.14;100.00;96605.91;5010005;28;20186;-57
2022/03/31 07:43:04;;;;;;;28.90;16.83;;;;;;;7.09;100.00;96609.03;5007746;28;20719;-57
2022/03/31 07:45:31;;;;;;;25.33;16.97;;;;;;;7.06;100.00;96611.19;5010307;28;20202;-57
2022/03/31 07:47:58;;;;;;;41.90;16.63;;;;;;;6.87;100.00;96604.72;5008584;28;20191;-57
2022/03/31 07:50:25;;;;;;;25.40;15.23;;;;;;;6.96;100.00;96605.44;5006597;28;20207;-57
2022/03/31 07:52:52;;;;;;;22.47;15.87;;;;;;;6.99;100.00;96608.47;5000990;28;20249;-58
2022/03/31 07:55:20;;;;;;;29.40;13.87;;;;;;;7.07;100.00;96600.59;5003369;28;20321;-58
2022/03/31 07:57:49;;;;;;;42.00;15.00;;;;;;;6.99;100.00;96595.50;5005721;28;20194;-57
2022/03/31 08:00:18;;;;;;;122.83;17.33;;;;;;;7.09;100.00;96593.44;5005962;28;20281;-56
2022/03/31 08:02:46;;;;;;;21.23;14.67;;;;;;;7.19;100.00;96600.97;5000544;28;20209;-57
2022/03/31 08:05:16;;;;;;;28.40;15.67;;;;;;;7.40;100.00;96596.88;5001174;28;20207;-57
2022/03/31 08:07:42;;;;;;;22.20;15.23;;;;;;;7.52;100.00;96592.78;5008501;28;20196;-57
2022/03/31 08:10:10;;;;;;;26.93;15.53;;;;;;;7.70;100.00;96596.00;5010932;28;20185;-57
2022/03/31 08:12:39;;;;;;;22.17;15.00;;;;;;;7.71;100.00;96589.81;5011375;28;20182;-57
2022/03/31 08:15:09;;;;;;;25.23;12.90;;;;;;;7.88;98.80;96595.59;5010801;28;20574;-57
2022/03/31 08:17:36;;;;;;;27.13;15.13;;;;;;;7.85;99.83;96588.97;5011234;28;20249;-57
2022/03/31 08:20:04;;;;;;;28.77;15.40;;;;;;;7.85;99.30;96594.19;5010823;28;20200;-57
2022/03/31 08:22:31;;;;;;;22.37;14.93;;;;;;;7.77;100.00;96597.66;5011219;28;20210;-57
2022/03/31 08:24:57;;;;;;;21.57;13.53;;;;;;;7.79;99.09;96593.09;5010685;28;20212;-57
2022/03/31 08:27:24;;;;;;;24.17;14.57;;;;;;;7.77;100.00;96592.47;5011071;28;20197;-57
2022/03/31 08:29:51;;;;;;;20.63;13.70;;;;;;;7.91;99.61;96592.63;5010816;28;20277;-57
2022/03/31 08:32:19;;;;;;;20.70;13.90;;;;;;;7.97;98.39;96587.47;5011265;28;20198;-57
2022/03/31 08:34:46;;;;;;;22.27;14.23;;;;;;;8.05;99.19;96586.56;5010726;28;20206;-57
2022/03/31 08:37:14;;;;;;;28.77;16.20;;;;;;;7.86;97.96;96587.16;5011134;28;20198;-57
2022/03/31 08:39:41;;;;;;;26.60;16.33;;;;;;;7.94;98.88;96594.84;5010878;28;20286;-57
2022/03/31 08:42:09;;;;;;;28.17;16.33;;;;;;;7.96;99.29;96592.88;5010865;28;20194;-57
2022/03/31 08:44:37;;;;;;;28.10;16.67;;;;;;;7.89;98.65;96592.00;5010344;28;20281;-57
2022/03/31 08:47:04;;;;;;;26.50;16.27;;;;;;;7.88;99.90;96596.41;5010884;28;20740;-57
2022/03/31 08:49:35;;;;;;;27.27;17.00;;;;;;;7.76;99.75;96590.88;5010842;28;20250;-57
2022/03/31 08:52:02;;;;;;;31.10;17.20;;;;;;;7.82;98.69;96591.94;5014156;28;20291;-57
2022/03/31 08:54:29;;;;;;;40.53;18.93;;;;;;;7.77;97.91;96600.28;5014141;28;20311;-55
2022/03/31 08:56:56;;;;;;;27.17;17.97;;;;;;;7.81;99.15;96590.34;5014113;28;20196;-55
2022/03/31 08:59:24;;;;;;;71.70;20.20;;;;;;;7.73;96.31;96591.22;5014550;28;20188;-56
2022/03/31 09:01:51;;;;;;;31.07;20.27;;;;;;;7.87;97.12;96600.00;5005569;28;20207;-55
2022/03/31 09:04:22;;;;;;;29.60;20.03;;;;;;;7.95;97.83;96591.25;5002992;28;20305;-56
2022/03/31 09:07:01;;;;;;;34.23;21.60;;;;;;;8.19;97.91;96592.69;5003384;28;20468;-56
2022/03/31 09:09:29;;;;;;;32.80;20.63;;;;;;;8.34;97.08;96589.22;5004802;28;20190;-56
2022/03/31 09:11:55;;;;;;;30.33;19.33;;;;;;;8.53;94.54;96590.41;5008592;28;20272;-56
2022/03/31 09:14:29;;;;;;;28.50;18.90;;;;;;;8.65;93.34;96585.50;5013708;28;20208;-55
2022/03/31 09:16:56;;;;;;;34.50;20.67;;;;;;;8.71;91.61;96593.34;5014137;28;20189;-56
2022/03/31 09:19:24;;;;;;;28.90;19.73;;;;;;;8.60;91.22;96590.47;5014192;28;20183;-56
2022/03/31 09:21:53;;;;;;;31.87;19.43;;;;;;;8.64;93.31;96595.09;5013957;28;20655;-56
2022/03/31 09:24:20;;;;;;;30.80;19.20;;;;;;;8.53;91.55;96599.03;5013496;28;20234;-56
2022/03/31 09:26:49;;;;;;;39.17;22.60;;;;;;;8.34;94.74;96595.25;5013699;28;20648;-55
2022/03/31 09:29:19;;;;;;;38.40;22.63;;;;;;;8.27;96.99;96599.56;5014006;28;20190;-56
2022/03/31 09:31:46;;;;;;;37.07;23.00;;;;;;;8.24;97.48;96595.53;5013789;28;20182;-56
2022/03/31 09:34:15;;;;;;;32.78;24.30;;;;;;;8.40;96.82;96597.09;5012293;28;20438;-56
2022/03/31 09:36:44;;;;;;;35.23;22.87;;;;;;;8.54;94.87;96597.22;5013863;28;20185;-56
2022/03/31 09:39:16;;;;;;;31.63;21.03;;;;;;;8.48;94.60;96585.75;5013997;28;20672;-56
2022/03/31 09:41:47;;;;;;;36.73;22.97;;;;;;;8.54;93.70;96586.81;5013540;28;20277;-56
2022/03/31 09:44:15;;;;;;;35.50;22.13;;;;;;;8.45;94.59;96593.13;5013040;28;20216;-56
2022/03/31 09:46:44;;;;;;;38.23;23.30;;;;;;;8.45;94.98;96590.53;5013486;28;20250;-56
2022/03/31 09:49:14;;;;;;;38.57;21.97;;;;;;;8.55;93.80;96585.81;5013589;28;20275;-56
2022/03/31 09:51:42;;;;;;;36.00;22.50;;;;;;;8.33;94.46;96587.63;5013361;28;20199;-56
2022/03/31 09:54:09;;;;;;;36.40;22.23;;;;;;;8.47;93.56;96593.75;5012830;28;20228;-56
2022/03/31 09:56:40;;;;;;;34.97;21.97;;;;;;;8.43;93.00;96593.31;5013401;28;20276;-56
2022/03/31 09:59:08;;;;;;;36.97;22.10;;;;;;;8.37;95.52;96594.06;5010575;28;20192;-56
2022/03/31 10:01:37;;;;;;;35.67;21.83;;;;;;;8.35;95.24;96593.44;5010396;28;20214;-55
2022/03/31 10:04:06;;;;;;;35.03;21.23;;;;;;;8.12;94.65;96592.63;5012042;28;20212;-56
2022/03/31 10:06:34;;;;;;;34.37;20.67;;;;;;;8.15;96.19;96591.44;5013321;28;20195;-56
2022/03/31 10:09:02;;;;;;;38.40;22.27;;;;;;;8.08;96.96;96590.59;5013203;28;20239;-56
2022/03/31 10:11:32;;;;;;;36.87;22.20;;;;;;;7.98;98.15;96591.69;5011593;28;20913;-56
2022/03/31 10:14:09;;;;;;;38.03;22.00;;;;;;;7.96;99.65;96595.47;5011050;28;20278;-56
2022/03/31 10:16:42;;;;;;;39.33;22.20;;;;;;;7.75;99.53;96586.66;5011964;28;20205;-55
2022/03/31 10:19:09;;;;;;;37.03;21.60;;;;;;;7.81;100.00;96596.31;5013074;28;20184;-56
2022/03/31 10:21:36;;;;;;;33.47;21.03;;;;;;;7.93;98.66;96590.66;5012691;28;20187;-56
2022/03/31 10:26:57;;;;;;;35.87;20.67;;;;;;;7.86;100.00;96587.16;5012182;28;20620;-56
2022/03/31 10:29:37;;;;;;;34.00;20.77;;;;;;;7.81;99.91;96590.34;5032606;28;20189;-56
2022/03/31 10:32:15;;;;;;;33.27;20.27;;;;;;;7.93;98.77;96588.06;5032596;28;20200;-55
2022/03/31 10:34:44;;;;;;;31.77;18.90;;;;;;;7.93;98.34;96581.06;5031867;28;20220;-56
2022/03/31 10:37:11;;;;;;;33.80;20.97;;;;;;;7.91;98.30;96577.84;5032509;28;20195;-56
2022/03/31 10:39:38;;;;;;;33.23;19.77;;;;;;;7.98;97.22;96575.31;5032020;28;20183;-56
2022/03/31 10:42:08;;;;;;;33.20;19.63;;;;;;;7.95;97.68;96578.28;5031903;28;20227;-54
2022/03/31 10:44:36;;;;;;;32.87;21.43;;;;;;;8.07;99.33;96581.19;5031645;28;20629;-55
2022/03/31 10:47:05;;;;;;;40.07;21.37;;;;;;;7.99;99.57;96576.91;5031975;28;20189;-56
2022/03/31 10:49:33;;;;;;;37.63;20.90;;;;;;;8.08;99.57;96570.63;5032112;28;20198;-55
2022/03/31 10:52:12;;;;;;;30.13;18.93;;;;;;;8.17;98.47;96578.28;5031913;28;20668;-56
2022/03/31 10:54:39;;;;;;;30.13;18.80;;;;;;;8.17;97.89;96567.91;5009750;28;20216;-55
2022/03/31 10:57:09;;;;;;;34.77;19.77;;;;;;;8.30;96.01;96570.63;5002017;28;20183;-55
2022/03/31 10:59:38;;;;;;;29.50;18.33;;;;;;;8.27;95.49;96563.19;5000526;28;20271;-56
2022/03/31 11:02:10;;;;;;;30.87;18.53;;;;;;;8.22;96.36;96563.72;5001867;28;20189;-56
2022/03/31 11:04:45;;;;;;;32.83;19.40;;;;;;;8.19;97.67;96558.91;5002182;28;20207;-56
2022/03/31 11:07:16;;;;;;;30.50;18.87;;;;;;;8.15;97.55;96565.47;5002545;28;20192;-56
2022/03/31 11:09:44;;;;;;;31.20;19.20;;;;;;;8.28;97.41;96557.00;5011572;28;20657;-56
2022/03/31 11:12:26;;;;;;;31.07;19.63;;;;;;;8.63;100.00;96562.28;5011734;28;20196;-43
2022/03/31 11:14:59;;;;;;;32.97;19.20;;;;;;;8.74;99.35;96555.75;4990849;28;20207;-43
2022/03/31 11:17:26;;;;;;;33.60;20.43;;;;;;;8.96;97.21;96555.69;4992167;28;20200;-42
2022/03/31 11:19:55;;;;;;;36.67;19.83;;;;;;;9.37;93.62;96549.66;4990647;28;20253;-42
2022/03/31 11:22:23;;;;;;;31.73;18.23;;;;;;;9.24;91.47;96553.03;4992127;28;20201;-45
2022/03/31 11:24:51;;;;;;;32.97;20.17;;;;;;;9.32;93.64;96548.66;4990099;28;20238;-43
2022/03/31 11:27:36;;;;;;;31.17;18.97;;;;;;;9.19;91.78;96538.97;4991935;28;20194;-51